createdAt,value
2022-10-06T00:03:23.034Z,14.80
2022-10-06T00:08:25.156Z,14.80
2022-10-06T00:13:28.421Z,14.80
2022-10-06T00:18:30.863Z,14.90
2022-10-06T00:23:33.039Z,14.90
2022-10-06T00:28:35.079Z,14.80
2022-10-06T00:33:39.274Z,14.80
2022-10-06T00:38:41.212Z,14.90
2022-10-06T00:43:52.023Z,14.90
2022-10-06T00:49:19.383Z,14.90
2022-10-06T00:54:21.957Z,15.20
2022-10-06T00:59:23.666Z,15.40
2022-10-06T01:04:26.831Z,15.50
2022-10-06T01:09:30.296Z,15.70
2022-10-06T01:14:33.080Z,15.70
2022-10-06T01:19:59.281Z,15.80
2022-10-06T01:25:02.838Z,15.90
2022-10-06T01:30:07.104Z,16.00
2022-10-06T01:35:09.632Z,16.00
2022-10-06T01:40:11.858Z,16.00
2022-10-06T01:45:13.759Z,16.10
2022-10-06T01:50:15.570Z,15.90
2022-10-06T01:55:17.626Z,15.90
2022-10-06T02:00:19.985Z,15.80
2022-10-06T02:05:22.961Z,15.80
2022-10-06T02:10:27.015Z,15.80
2022-10-06T02:15:33.025Z,15.60
2022-10-06T02:20:34.840Z,15.60
2022-10-06T02:25:36.645Z,15.50
2022-10-06T02:30:38.956Z,15.50
2022-10-06T02:35:42.879Z,15.40
2022-10-06T02:40:45.010Z,15.40
2022-10-06T02:45:58.151Z,15.40
2022-10-06T02:51:02.864Z,15.40
2022-10-06T02:56:34.223Z,15.40
2022-10-06T03:01:36.137Z,15.30
2022-10-06T03:06:49.244Z,15.40
2022-10-06T03:11:54.087Z,15.40
2022-10-06T03:17:03.433Z,15.50
2022-10-06T03:22:06.678Z,15.60
2022-10-06T03:27:24.005Z,15.60
2022-10-06T03:32:29.128Z,15.70
2022-10-06T03:37:30.912Z,15.60
2022-10-06T03:42:32.766Z,15.80
2022-10-06T03:47:34.851Z,15.90
2022-10-06T03:52:36.772Z,16.00
2022-10-06T03:57:38.568Z,16.00
2022-10-06T04:02:40.910Z,16.10
2022-10-06T04:07:43.340Z,16.20
2022-10-06T04:12:45.638Z,16.20
2022-10-06T04:17:47.485Z,16.20
2022-10-06T04:22:50.594Z,16.30
2022-10-06T04:27:53.381Z,16.30
2022-10-06T04:32:55.585Z,16.30
2022-10-06T04:37:57.606Z,16.30
2022-10-06T04:42:59.841Z,16.30
2022-10-06T04:48:01.978Z,16.20
2022-10-06T04:53:04.449Z,16.40
2022-10-06T04:58:06.831Z,16.40
2022-10-06T05:03:09.369Z,16.40
2022-10-06T05:08:11.430Z,16.40
2022-10-06T05:13:14.395Z,16.20
2022-10-06T05:18:16.315Z,16.30
2022-10-06T05:23:18.771Z,16.20
2022-10-06T05:28:29.370Z,16.10
2022-10-06T05:33:35.276Z,16.10
2022-10-06T05:38:37.851Z,16.00
2022-10-06T05:43:40.638Z,15.90
2022-10-06T05:48:46.699Z,15.90
2022-10-06T05:53:49.717Z,15.80
2022-10-06T05:58:54.045Z,15.70
2022-10-06T06:04:02.658Z,15.70
2022-10-06T06:09:17.126Z,15.40
2022-10-06T06:14:41.831Z,15.40
2022-10-06T06:19:43.856Z,15.30
2022-10-06T06:24:46.010Z,15.20
2022-10-06T06:29:48.830Z,15.10
2022-10-06T06:34:52.747Z,15.00
2022-10-06T06:39:54.807Z,15.00
2022-10-06T06:44:56.626Z,14.90
2022-10-06T06:50:14.036Z,14.90
2022-10-06T06:55:16.895Z,14.90
2022-10-06T07:00:18.754Z,14.90
2022-10-06T07:05:20.556Z,15.00
2022-10-06T07:10:22.448Z,15.00
2022-10-06T07:15:43.265Z,15.00
2022-10-06T07:21:03.475Z,15.10
2022-10-06T07:26:05.659Z,15.10
2022-10-06T07:31:07.559Z,15.00
2022-10-06T07:36:11.136Z,15.10
2022-10-06T07:41:19.366Z,15.10
2022-10-06T07:46:25.802Z,15.30
2022-10-06T07:51:38.505Z,15.40
2022-10-06T07:56:40.534Z,15.60
2022-10-06T08:01:44.412Z,15.80
2022-10-06T08:06:47.618Z,15.90
2022-10-06T08:11:49.321Z,15.90
2022-10-06T08:16:52.230Z,16.10
2022-10-06T08:21:53.938Z,16.20
2022-10-06T08:26:55.652Z,16.20
2022-10-06T08:31:59.336Z,16.20
2022-10-06T08:37:19.354Z,16.10
2022-10-06T08:42:39.093Z,16.30
2022-10-06T08:47:50.837Z,16.20
2022-10-06T08:53:15.487Z,15.90
2022-10-06T08:58:30.508Z,16.00
2022-10-06T09:03:32.255Z,16.00
2022-10-06T09:08:55.006Z,16.50
2022-10-06T09:14:06.318Z,16.70
2022-10-06T09:20:02.448Z,16.80
2022-10-06T09:25:20.093Z,16.70
2022-10-06T09:30:22.044Z,16.60
2022-10-06T09:35:27.828Z,16.40
2022-10-06T09:40:40.351Z,16.80
2022-10-06T09:45:42.632Z,16.90
2022-10-06T09:50:45.661Z,16.90
2022-10-06T09:55:52.091Z,16.80
2022-10-06T10:01:00.853Z,16.50
2022-10-06T10:06:02.812Z,16.40
2022-10-06T10:11:49.239Z,16.40
2022-10-06T10:16:53.348Z,16.40
2022-10-06T10:21:56.342Z,16.40
2022-10-06T10:27:08.221Z,16.50
2022-10-06T10:32:19.461Z,16.70
2022-10-06T10:37:45.693Z,16.60
2022-10-06T10:42:56.446Z,16.90
2022-10-06T10:48:11.006Z,17.10
2022-10-06T10:53:29.718Z,17.00
2022-10-06T10:58:35.699Z,16.90
2022-10-06T11:03:37.810Z,16.90
2022-10-06T11:09:09.850Z,16.90
2022-10-06T11:14:37.120Z,16.90
2022-10-06T11:20:09.386Z,16.80
2022-10-06T11:25:22.569Z,17.00
2022-10-06T11:30:28.968Z,17.30
2022-10-06T11:35:37.286Z,17.50
2022-10-06T11:41:00.438Z,17.40
2022-10-06T11:46:10.450Z,17.20
2022-10-06T11:51:24.868Z,17.20
2022-10-06T11:56:36.652Z,17.50
2022-10-06T12:01:43.722Z,17.50
2022-10-06T12:06:48.581Z,17.50
2022-10-06T12:11:52.156Z,17.60
2022-10-06T12:17:12.762Z,17.70
2022-10-06T12:22:30.019Z,17.70
2022-10-06T12:27:32.059Z,17.80
2022-10-06T12:32:55.747Z,17.80
2022-10-06T12:38:06.180Z,17.70
2022-10-06T12:43:23.003Z,17.80
2022-10-06T12:48:35.309Z,18.20
2022-10-06T12:54:02.711Z,18.40
2022-10-06T12:59:21.515Z,18.80
2022-10-06T13:04:53.449Z,19.10
2022-10-06T13:10:17.305Z,19.10
2022-10-06T13:15:27.806Z,19.20
2022-10-06T13:20:40.058Z,19.20
2022-10-06T13:25:57.581Z,19.50
2022-10-06T13:36:10.959Z,20.20
2022-10-06T13:41:17.443Z,20.40
2022-10-06T13:46:22.764Z,20.40
2022-10-06T13:51:31.078Z,20.40
2022-10-06T13:56:35.151Z,20.80
2022-10-06T14:01:36.913Z,20.90
2022-10-06T14:06:44.850Z,20.50
2022-10-06T14:11:46.966Z,20.20
2022-10-06T14:16:52.741Z,20.50
2022-10-06T14:21:54.466Z,20.40
2022-10-06T14:27:01.737Z,19.80
2022-10-06T14:32:08.591Z,19.50
2022-10-06T14:37:15.092Z,19.20
2022-10-06T14:42:17.364Z,19.10
2022-10-06T14:47:19.726Z,18.70
2022-10-06T14:52:22.803Z,18.40
2022-10-06T14:57:24.498Z,18.20
2022-10-06T15:02:26.335Z,18.10
2022-10-06T15:07:47.013Z,17.90
2022-10-06T15:12:48.722Z,17.70
2022-10-06T15:17:50.637Z,17.60
2022-10-06T15:22:52.496Z,17.50
2022-10-06T15:28:12.779Z,17.40
2022-10-06T15:33:14.539Z,17.30
2022-10-06T15:38:16.239Z,17.20
2022-10-06T15:43:37.958Z,17.20
2022-10-06T15:48:41.442Z,17.10
2022-10-06T15:53:46.507Z,17.00
2022-10-06T15:58:48.826Z,16.90
2022-10-06T16:03:50.741Z,16.80
2022-10-06T16:08:52.524Z,16.70
2022-10-06T16:13:54.250Z,16.70
2022-10-06T16:18:56.241Z,16.50
2022-10-06T16:23:58.792Z,16.50
2022-10-06T16:29:00.555Z,16.30
2022-10-06T16:34:02.314Z,16.30
2022-10-06T16:39:06.155Z,16.20
2022-10-06T16:44:07.877Z,16.10
2022-10-06T16:49:10.118Z,15.90
2022-10-06T16:54:14.010Z,15.90
2022-10-06T16:59:18.364Z,15.70
2022-10-06T17:04:26.549Z,15.60
2022-10-06T17:09:29.708Z,15.50
2022-10-06T17:14:33.170Z,15.50
2022-10-06T17:19:35.025Z,15.40
2022-10-06T17:24:36.837Z,15.30
2022-10-06T17:29:39.077Z,15.30
2022-10-06T17:34:40.899Z,15.10
2022-10-06T17:39:47.111Z,15.00
2022-10-06T17:44:49.162Z,14.80
2022-10-06T17:49:51.297Z,14.80
2022-10-06T17:54:54.369Z,14.60
2022-10-06T17:59:58.892Z,14.60
2022-10-06T18:05:00.608Z,14.40
2022-10-06T18:10:20.992Z,14.30
2022-10-06T18:15:22.706Z,14.20
2022-10-06T18:20:29.886Z,14.20
2022-10-06T18:25:31.761Z,14.20
2022-10-06T18:30:33.974Z,14.10
2022-10-06T18:41:00.400Z,13.80
2022-10-06T18:46:23.374Z,13.60
2022-10-06T18:51:33.701Z,13.50
2022-10-06T18:56:38.027Z,13.40
2022-10-06T19:01:41.918Z,13.30
2022-10-06T19:06:47.024Z,13.10
2022-10-06T19:11:57.837Z,13.00
2022-10-06T19:17:13.741Z,12.90
2022-10-06T19:22:16.133Z,12.80
2022-10-06T19:27:24.020Z,12.70
2022-10-06T19:32:28.797Z,12.60
2022-10-06T19:37:31.195Z,12.70
2022-10-06T19:42:48.047Z,12.50
2022-10-06T19:47:51.301Z,12.50
2022-10-06T19:52:53.020Z,12.50
2022-10-06T19:57:54.765Z,12.30
2022-10-06T20:02:56.501Z,12.40
2022-10-06T20:07:58.304Z,12.30
2022-10-06T20:13:00.067Z,12.20
2022-10-06T20:18:02.068Z,12.10
2022-10-06T20:23:03.806Z,12.00
2022-10-06T20:28:08.970Z,11.90
2022-10-06T20:33:11.500Z,11.90
2022-10-06T20:38:16.341Z,11.70
2022-10-06T20:43:24.342Z,11.70
2022-10-06T20:48:28.781Z,11.50
2022-10-06T20:53:33.534Z,11.50
2022-10-06T20:58:35.815Z,11.50
2022-10-06T21:03:46.585Z,11.40
2022-10-06T21:08:49.278Z,11.40
2022-10-06T21:13:55.763Z,11.40
2022-10-06T21:18:59.805Z,11.30
2022-10-06T21:24:02.495Z,11.30
2022-10-06T21:29:04.766Z,11.30
2022-10-06T21:34:06.705Z,11.20
2022-10-06T21:39:08.877Z,11.10
2022-10-06T21:44:14.574Z,10.90
2022-10-06T21:49:20.584Z,10.90
2022-10-06T21:54:23.291Z,10.70
2022-10-06T21:59:25.050Z,10.80
2022-10-06T22:04:26.783Z,10.70
2022-10-06T22:09:28.580Z,10.60
2022-10-06T22:14:30.321Z,10.60
2022-10-06T22:19:32.115Z,10.60
2022-10-06T22:24:33.845Z,10.50
2022-10-06T22:29:35.590Z,10.60
2022-10-06T22:34:38.030Z,10.60
2022-10-06T22:39:39.843Z,10.50
2022-10-06T22:44:41.578Z,10.50
2022-10-06T22:49:43.313Z,10.40
2022-10-06T22:54:45.053Z,10.30
2022-10-06T22:59:46.795Z,10.20
2022-10-06T23:04:48.540Z,10.20
2022-10-06T23:09:50.310Z,10.10
2022-10-06T23:14:52.070Z,10.10
2022-10-06T23:19:53.830Z,10.10
2022-10-06T23:24:55.660Z,10.00
2022-10-06T23:29:57.478Z,10.00
2022-10-06T23:34:59.343Z,9.90
2022-10-06T23:40:01.101Z,9.90
2022-10-06T23:45:02.872Z,9.80
2022-10-06T23:50:05.023Z,9.80
2022-10-06T23:55:07.445Z,9.70
